PWSweather.com
Personal Weather Stations
Station Observations

ChardChardGB

Lat: 50.877408, Lon: -2.94964741

Elevation: 341

Station Type: WS3083

http://www.merriott-astro.co.uk/weather/index.htm

High Low Average
Temperature 70.3°F21.3°C 41.5°F5.3°C 57.4°F14.1°C
Dew Point 45.9°F7.7°C 35.8°F2.1°C 39.1°F3.9°C
Winds 7.2 mph 11.6 kmh Calm Calm 3.0 mph S4.8 kmh S
Wind Gusts 15.2 mph24.5 kmh -- 5.0 mph8.0 kmh
Humidity 82% 32% 53%
Pressure 30.13 in1020.3 mb 29.93 in1013.5 mb -
Precipitation 0.01 in0.3 mm - -
Hour Temp Dew Point Humidity Winds Wind Gusts Pressure Precip Precip Rate Daily Precip Total
12:00 AM 49.5°F9.7°C 37.0°F2.8°C 62% 1.0 mph E1.6 kmh E 2.2 mph3.5 kmh 30.12 in1020.0 mb 0.00 in0.0 mm 0.00 in0.0 mm 0.00 in0.0 mm
12:10 AM 49.3°F9.6°C 36.8°F2.7°C 62% 0.5 mph N0.8 kmh N 1.6 mph2.6 kmh 30.12 in1020.0 mb 0.00 in0.0 mm 0.00 in0.0 mm 0.00 in0.0 mm
12:20 AM 48.7°F9.3°C 36.3°F2.4°C 62% 0.4 mph E0.6 kmh E 1.6 mph2.6 kmh 30.12 in1020.0 mb 0.00 in0.0 mm 0.00 in0.0 mm 0.00 in0.0 mm
12:30 AM 48.4°F9.1°C 36.4°F2.4°C 63% 0.3 mph W0.5 kmh W 0.7 mph1.1 kmh 30.13 in1020.3 mb 0.00 in0.0 mm 0.00 in0.0 mm 0.00 in0.0 mm
12:40 AM 47.8°F8.8°C 36.3°F2.4°C 64% 0.5 mph S0.8 kmh S 1.6 mph2.6 kmh 30.12 in1020.0 mb 0.00 in0.0 mm 0.00 in0.0 mm 0.00 in0.0 mm
12:50 AM 47.5°F8.6°C 35.9°F2.2°C 64% Calm Calm -- 30.11 in1019.6 mb 0.00 in0.0 mm 0.00 in0.0 mm 0.00 in0.0 mm
01:00 AM 47.3°F8.5°C 36.1°F2.3°C 65% Calm Calm -- 30.12 in1020.0 mb 0.00 in0.0 mm 0.00 in0.0 mm 0.00 in0.0 mm
01:10 AM 46.6°F8.1°C 35.8°F2.1°C 66% 0.3 mph NE0.5 kmh NE 0.7 mph1.1 kmh 30.11 in1019.6 mb 0.00 in0.0 mm 0.00 in0.0 mm 0.00 in0.0 mm
01:20 AM 46.0°F7.8°C 36.8°F2.7°C 70% 0.7 mph SW1.1 kmh SW 1.6 mph2.6 kmh 30.10 in1019.3 mb 0.00 in0.0 mm 0.00 in0.0 mm 0.00 in0.0 mm
01:30 AM 45.9°F7.7°C 36.6°F2.6°C 70% 0.2 mph WSW0.3 kmh WSW 0.7 mph1.1 kmh 30.11 in1019.6 mb 0.00 in0.0 mm 0.00 in0.0 mm 0.00 in0.0 mm
01:40 AM 45.7°F7.6°C 36.5°F2.5°C 70% 0.3 mph S0.5 kmh S 1.6 mph2.6 kmh 30.11 in1019.6 mb 0.00 in0.0 mm 0.00 in0.0 mm 0.00 in0.0 mm
01:50 AM 45.9°F7.7°C 36.6°F2.6°C 70% 0.1 mph S0.2 kmh S 0.7 mph1.1 kmh 30.11 in1019.6 mb 0.00 in0.0 mm 0.00 in0.0 mm 0.00 in0.0 mm
02:00 AM 45.5°F7.5°C 36.3°F2.4°C 70% 0.5 mph ESE0.8 kmh ESE 1.6 mph2.6 kmh 30.11 in1019.6 mb 0.00 in0.0 mm 0.00 in0.0 mm 0.00 in0.0 mm
02:10 AM 45.0°F7.2°C 36.8°F2.7°C 73% 0.4 mph NNE0.6 kmh NNE 1.6 mph2.6 kmh 30.11 in1019.6 mb 0.00 in0.0 mm 0.00 in0.0 mm 0.00 in0.0 mm
02:20 AM 44.2°F6.8°C 36.5°F2.5°C 74% 0.5 mph ESE0.8 kmh ESE 1.6 mph2.6 kmh 30.11 in1019.6 mb 0.00 in0.0 mm 0.00 in0.0 mm 0.00 in0.0 mm
02:30 AM 44.1°F6.7°C 36.7°F2.6°C 75% 0.6 mph SE1.0 kmh SE 1.6 mph2.6 kmh 30.11 in1019.6 mb 0.00 in0.0 mm 0.00 in0.0 mm 0.00 in0.0 mm
02:40 AM 43.5°F6.4°C 36.5°F2.5°C 76% 0.4 mph E0.6 kmh E 1.6 mph2.6 kmh 30.10 in1019.3 mb 0.00 in0.0 mm 0.00 in0.0 mm 0.00 in0.0 mm
02:50 AM 43.2°F6.2°C 36.4°F2.4°C 77% 0.1 mph E0.2 kmh E 0.7 mph1.1 kmh 30.10 in1019.3 mb 0.00 in0.0 mm 0.00 in0.0 mm 0.00 in0.0 mm
03:00 AM 42.8°F6.0°C 36.4°F2.4°C 78% 0.1 mph NW0.2 kmh NW 0.7 mph1.1 kmh 30.10 in1019.3 mb 0.00 in0.0 mm 0.00 in0.0 mm 0.00 in0.0 mm
03:10 AM 42.6°F5.9°C 36.6°F2.6°C 79% Calm Calm 0.7 mph1.1 kmh 30.10 in1019.3 mb 0.00 in0.0 mm 0.00 in0.0 mm 0.00 in0.0 mm
03:20 AM 42.6°F5.9°C 36.9°F2.7°C 80% 0.4 mph N0.6 kmh N 1.6 mph2.6 kmh 30.10 in1019.3 mb 0.00 in0.0 mm 0.00 in0.0 mm 0.00 in0.0 mm
03:30 AM 42.4°F5.8°C 36.7°F2.6°C 80% 0.1 mph ENE0.2 kmh ENE 0.7 mph1.1 kmh 30.10 in1019.3 mb 0.00 in0.0 mm 0.00 in0.0 mm 0.00 in0.0 mm
03:40 AM 42.1°F5.6°C 36.7°F2.6°C 81% 0.3 mph ENE0.5 kmh ENE 0.7 mph1.1 kmh 30.10 in1019.3 mb 0.00 in0.0 mm 0.00 in0.0 mm 0.00 in0.0 mm
03:50 AM 41.7°F5.4°C 36.3°F2.4°C 81% 0.1 mph NW0.2 kmh NW 0.7 mph1.1 kmh 30.09 in1019.0 mb 0.00 in0.0 mm 0.00 in0.0 mm 0.00 in0.0 mm
04:00 AM 41.7°F5.4°C 36.3°F2.4°C 81% 0.3 mph ENE0.5 kmh ENE 0.7 mph1.1 kmh 30.09 in1019.0 mb 0.00 in0.0 mm 0.00 in0.0 mm 0.00 in0.0 mm
04:10 AM 41.5°F5.3°C 36.5°F2.5°C 82% 0.4 mph ENE0.6 kmh ENE 1.6 mph2.6 kmh 30.08 in1018.6 mb 0.00 in0.0 mm 0.00 in0.0 mm 0.00 in0.0 mm
04:20 AM 41.5°F5.3°C 36.5°F2.5°C 82% 0.5 mph NW0.8 kmh NW 1.6 mph2.6 kmh 30.09 in1019.0 mb 0.00 in0.0 mm 0.00 in0.0 mm 0.00 in0.0 mm
04:30 AM 41.5°F5.3°C 36.5°F2.5°C 82% 0.6 mph NNE1.0 kmh NNE 0.7 mph1.1 kmh 30.09 in1019.0 mb 0.00 in0.0 mm 0.00 in0.0 mm 0.00 in0.0 mm
04:40 AM 41.7°F5.4°C 36.6°F2.6°C 82% 0.9 mph W1.4 kmh W 1.6 mph2.6 kmh 30.09 in1019.0 mb 0.00 in0.0 mm 0.00 in0.0 mm 0.00 in0.0 mm
04:50 AM 42.1°F5.6°C 37.0°F2.8°C 82% 0.3 mph WNW0.5 kmh WNW 0.7 mph1.1 kmh 30.09 in1019.0 mb 0.00 in0.0 mm 0.00 in0.0 mm 0.00 in0.0 mm
05:00 AM 42.6°F5.9°C 37.2°F2.9°C 81% 0.1 mph NW0.2 kmh NW 0.7 mph1.1 kmh 30.09 in1019.0 mb 0.00 in0.0 mm 0.00 in0.0 mm 0.00 in0.0 mm
05:10 AM 43.2°F6.2°C 37.7°F3.2°C 81% Calm Calm -- 30.09 in1019.0 mb 0.00 in0.0 mm 0.00 in0.0 mm 0.00 in0.0 mm
05:20 AM 43.9°F6.6°C 38.1°F3.4°C 80% 1.8 mph NE2.9 kmh NE 2.2 mph3.5 kmh 30.09 in1019.0 mb 0.00 in0.0 mm 0.00 in0.0 mm 0.00 in0.0 mm
05:30 AM 45.3°F7.4°C 38.9°F3.8°C 78% 1.0 mph NNW1.6 kmh NNW 1.6 mph2.6 kmh 30.09 in1019.0 mb 0.00 in0.0 mm 0.00 in0.0 mm 0.00 in0.0 mm
05:40 AM 48.4°F9.1°C 39.1°F3.9°C 70% 1.7 mph N2.7 kmh N 3.1 mph5.0 kmh 30.09 in1019.0 mb 0.00 in0.0 mm 0.00 in0.0 mm 0.00 in0.0 mm
05:50 AM 47.8°F8.8°C 36.3°F2.4°C 64% 2.3 mph NNE3.7 kmh NNE 3.1 mph5.0 kmh 30.09 in1019.0 mb 0.00 in0.0 mm 0.00 in0.0 mm 0.00 in0.0 mm
06:00 AM 49.6°F9.8°C 38.0°F3.3°C 64% 2.5 mph NE4.0 kmh NE 3.1 mph5.0 kmh 30.09 in1019.0 mb 0.00 in0.0 mm 0.00 in0.0 mm 0.00 in0.0 mm
06:10 AM 51.6°F10.9°C 38.2°F3.4°C 60% 3.0 mph NE4.8 kmh NE 3.8 mph6.1 kmh 30.09 in1019.0 mb 0.00 in0.0 mm 0.00 in0.0 mm 0.00 in0.0 mm
06:20 AM 52.2°F11.2°C 38.7°F3.7°C 60% 2.5 mph NNE4.0 kmh NNE 3.8 mph6.1 kmh 30.09 in1019.0 mb 0.00 in0.0 mm 0.00 in0.0 mm 0.00 in0.0 mm
06:30 AM 53.2°F11.8°C 39.7°F4.3°C 60% 2.4 mph NNE3.9 kmh NNE 3.8 mph6.1 kmh 30.09 in1019.0 mb 0.00 in0.0 mm 0.00 in0.0 mm 0.00 in0.0 mm
06:40 AM 52.5°F11.4°C 39.0°F3.9°C 60% 3.1 mph NNE5.0 kmh NNE 3.8 mph6.1 kmh 30.09 in1019.0 mb 0.00 in0.0 mm 0.00 in0.0 mm 0.00 in0.0 mm
06:50 AM 51.6°F10.9°C 38.6°F3.7°C 61% 2.8 mph N4.5 kmh N 3.8 mph6.1 kmh 30.09 in1019.0 mb 0.00 in0.0 mm 0.00 in0.0 mm 0.00 in0.0 mm
07:00 AM 51.6°F10.9°C 39.0°F3.9°C 62% 3.1 mph N5.0 kmh N 3.8 mph6.1 kmh 30.09 in1019.0 mb 0.00 in0.0 mm 0.00 in0.0 mm 0.00 in0.0 mm
07:10 AM 53.6°F12.0°C 40.9°F4.9°C 62% 2.3 mph NE3.7 kmh NE 3.1 mph5.0 kmh 30.09 in1019.0 mb 0.00 in0.0 mm 0.00 in0.0 mm 0.00 in0.0 mm
07:20 AM 54.1°F12.3°C 40.6°F4.8°C 60% 3.1 mph N5.0 kmh N 4.5 mph7.2 kmh 30.09 in1019.0 mb 0.00 in0.0 mm 0.00 in0.0 mm 0.00 in0.0 mm
07:30 AM 54.1°F12.3°C 41.4°F5.2°C 62% 4.1 mph NNW6.6 kmh NNW 5.4 mph8.7 kmh 30.09 in1019.0 mb 0.00 in0.0 mm 0.00 in0.0 mm 0.00 in0.0 mm
07:40 AM 56.7°F13.7°C 43.4°F6.3°C 61% 3.5 mph N5.6 kmh N 5.4 mph8.7 kmh 30.09 in1019.0 mb 0.00 in0.0 mm 0.00 in0.0 mm 0.00 in0.0 mm
07:50 AM 57.9°F14.4°C 42.8°F6.0°C 57% 3.8 mph NNE6.1 kmh NNE 5.4 mph8.7 kmh 30.09 in1019.0 mb 0.00 in0.0 mm 0.00 in0.0 mm 0.00 in0.0 mm
08:00 AM 58.8°F14.9°C 43.2°F6.2°C 56% 4.3 mph ENE6.9 kmh ENE 5.4 mph8.7 kmh 30.09 in1019.0 mb 0.00 in0.0 mm 0.00 in0.0 mm 0.00 in0.0 mm
08:10 AM 59.7°F15.4°C 43.5°F6.4°C 55% 5.6 mph N9.0 kmh N 15.2 mph24.5 kmh 30.09 in1019.0 mb 0.01 in0.3 mm 0.06 in1.5 mm 0.01 in0.3 mm
08:20 AM 60.8°F16.0°C 44.5°F6.9°C 55% 3.2 mph N5.1 kmh N 4.5 mph7.2 kmh 30.08 in1018.6 mb 0.01 in0.3 mm 0.00 in0.0 mm 0.01 in0.3 mm
08:30 AM 62.6°F17.0°C 45.7°F7.6°C 54% 3.1 mph NE5.0 kmh NE 3.8 mph6.1 kmh 30.09 in1019.0 mb 0.01 in0.3 mm 0.00 in0.0 mm 0.01 in0.3 mm
08:40 AM 62.2°F16.8°C 45.9°F7.7°C 55% 3.5 mph NNE5.6 kmh NNE 4.5 mph7.2 kmh 30.08 in1018.6 mb 0.01 in0.3 mm 0.00 in0.0 mm 0.01 in0.3 mm
08:50 AM 64.2°F17.9°C 45.2°F7.3°C 50% 3.3 mph NE5.3 kmh NE 5.4 mph8.7 kmh 30.08 in1018.6 mb 0.01 in0.3 mm 0.00 in0.0 mm 0.01 in0.3 mm
09:00 AM 64.4°F18.0°C 44.8°F7.1°C 49% 3.6 mph NNE5.8 kmh NNE 4.5 mph7.2 kmh 30.08 in1018.6 mb 0.01 in0.3 mm 0.00 in0.0 mm 0.01 in0.3 mm
09:10 AM 65.8°F18.8°C 43.9°F6.6°C 45% 3.9 mph NE6.3 kmh NE 6.0 mph9.7 kmh 30.08 in1018.6 mb 0.00 in0.0 mm 0.00 in0.0 mm 0.01 in0.3 mm
09:20 AM 66.9°F19.4°C 43.1°F6.2°C 42% 4.5 mph SE7.2 kmh SE 6.9 mph11.1 kmh 30.08 in1018.6 mb 0.00 in0.0 mm 0.00 in0.0 mm 0.01 in0.3 mm
09:30 AM 67.5°F19.7°C 43.0°F6.1°C 41% 3.3 mph SW5.3 kmh SW 6.0 mph9.7 kmh 30.08 in1018.6 mb 0.00 in0.0 mm 0.00 in0.0 mm 0.01 in0.3 mm
09:40 AM 67.5°F19.7°C 42.3°F5.7°C 40% 4.4 mph E7.1 kmh E 7.6 mph12.2 kmh 30.08 in1018.6 mb 0.00 in0.0 mm 0.00 in0.0 mm 0.01 in0.3 mm
09:50 AM 67.6°F19.8°C 40.5°F4.7°C 37% 4.7 mph E7.6 kmh E 7.6 mph12.2 kmh 30.08 in1018.6 mb 0.00 in0.0 mm 0.00 in0.0 mm 0.01 in0.3 mm
10:00 AM 68.0°F20.0°C 40.1°F4.5°C 36% 4.1 mph S6.6 kmh S 6.0 mph9.7 kmh 30.07 in1018.3 mb 0.00 in0.0 mm 0.00 in0.0 mm 0.01 in0.3 mm
10:10 AM 67.5°F19.7°C 38.9°F3.8°C 35% 5.9 mph SE9.5 kmh SE 9.2 mph14.8 kmh 30.07 in1018.3 mb 0.00 in0.0 mm 0.00 in0.0 mm 0.01 in0.3 mm
10:20 AM 66.4°F19.1°C 40.0°F4.4°C 38% 6.6 mph SE10.6 kmh SE 12.1 mph19.5 kmh 30.07 in1018.3 mb 0.00 in0.0 mm 0.00 in0.0 mm 0.01 in0.3 mm
10:30 AM 68.2°F20.1°C 39.5°F4.2°C 35% 4.7 mph WSW7.6 kmh WSW 9.8 mph15.8 kmh 30.07 in1018.3 mb 0.00 in0.0 mm 0.00 in0.0 mm 0.01 in0.3 mm
10:40 AM 67.6°F19.8°C 39.8°F4.3°C 36% 5.2 mph W8.4 kmh W 7.6 mph12.2 kmh 30.07 in1018.3 mb 0.00 in0.0 mm 0.00 in0.0 mm 0.01 in0.3 mm
10:50 AM 67.8°F19.9°C 40.6°F4.8°C 37% 4.9 mph WSW7.9 kmh WSW 7.6 mph12.2 kmh 30.07 in1018.3 mb 0.00 in0.0 mm 0.00 in0.0 mm 0.01 in0.3 mm
11:00 AM 68.4°F20.2°C 41.1°F5.1°C 37% 5.2 mph S8.4 kmh S 9.8 mph15.8 kmh 30.06 in1017.9 mb 0.00 in0.0 mm 0.00 in0.0 mm 0.01 in0.3 mm
11:10 AM 68.0°F20.0°C 40.1°F4.5°C 36% 5.8 mph E9.3 kmh E 7.6 mph12.2 kmh 30.06 in1017.9 mb 0.00 in0.0 mm 0.00 in0.0 mm 0.01 in0.3 mm
11:20 AM 67.6°F19.8°C 40.5°F4.7°C 37% 5.4 mph E8.7 kmh E 6.9 mph11.1 kmh 30.06 in1017.9 mb 0.00 in0.0 mm 0.00 in0.0 mm 0.01 in0.3 mm
11:30 AM 67.8°F19.9°C 39.2°F4.0°C 35% 6.3 mph SE10.1 kmh SE 12.1 mph19.5 kmh 30.05 in1017.6 mb 0.00 in0.0 mm 0.00 in0.0 mm 0.01 in0.3 mm
11:40 AM 68.7°F20.4°C 41.4°F5.2°C 37% 4.6 mph E7.4 kmh E 6.9 mph11.1 kmh 30.06 in1017.9 mb 0.00 in0.0 mm 0.00 in0.0 mm 0.01 in0.3 mm
11:50 AM 68.5°F20.3°C 39.8°F4.3°C 35% 5.0 mph ENE8.0 kmh ENE 7.6 mph12.2 kmh 30.05 in1017.6 mb 0.00 in0.0 mm 0.00 in0.0 mm 0.01 in0.3 mm
12:00 PM 68.5°F20.3°C 40.6°F4.8°C 36% 5.3 mph S8.5 kmh S 7.6 mph12.2 kmh 30.04 in1017.3 mb 0.00 in0.0 mm 0.00 in0.0 mm 0.01 in0.3 mm
12:10 PM 68.4°F20.2°C 39.7°F4.3°C 35% 5.0 mph SSW8.0 kmh SSW 7.6 mph12.2 kmh 30.04 in1017.3 mb 0.00 in0.0 mm 0.00 in0.0 mm 0.01 in0.3 mm
12:20 PM 69.1°F20.6°C 41.7°F5.4°C 37% 4.3 mph SE6.9 kmh SE 6.0 mph9.7 kmh 30.04 in1017.3 mb 0.00 in0.0 mm 0.00 in0.0 mm 0.01 in0.3 mm
12:30 PM 70.0°F21.1°C 39.6°F4.2°C 33% 4.9 mph SE7.9 kmh SE 9.8 mph15.8 kmh 30.03 in1016.9 mb 0.00 in0.0 mm 0.00 in0.0 mm 0.01 in0.3 mm
12:40 PM 69.4°F20.8°C 39.9°F4.4°C 34% 6.1 mph S9.8 kmh S 7.6 mph12.2 kmh 30.03 in1016.9 mb 0.00 in0.0 mm 0.00 in0.0 mm 0.01 in0.3 mm
12:50 PM 68.2°F20.1°C 38.8°F3.8°C 34% 5.3 mph SE8.5 kmh SE 9.2 mph14.8 kmh 30.03 in1016.9 mb 0.00 in0.0 mm 0.00 in0.0 mm 0.01 in0.3 mm
01:00 PM 68.7°F20.4°C 38.5°F3.6°C 33% 5.7 mph S9.2 kmh S 7.6 mph12.2 kmh 30.02 in1016.6 mb 0.00 in0.0 mm 0.00 in0.0 mm 0.01 in0.3 mm
01:10 PM 69.4°F20.8°C 39.1°F3.9°C 33% 5.2 mph E8.4 kmh E 7.6 mph12.2 kmh 30.02 in1016.6 mb 0.00 in0.0 mm 0.00 in0.0 mm 0.01 in0.3 mm
01:20 PM 69.6°F20.9°C 40.0°F4.4°C 34% 6.0 mph S9.7 kmh S 9.8 mph15.8 kmh 30.02 in1016.6 mb 0.00 in0.0 mm 0.00 in0.0 mm 0.01 in0.3 mm
01:30 PM 69.6°F20.9°C 42.2°F5.7°C 37% 4.9 mph N7.9 kmh N 9.8 mph15.8 kmh 30.02 in1016.6 mb 0.00 in0.0 mm 0.00 in0.0 mm 0.01 in0.3 mm
01:40 PM 70.3°F21.3°C 42.9°F6.1°C 37% 4.2 mph N6.8 kmh N 8.3 mph13.4 kmh 30.02 in1016.6 mb 0.00 in0.0 mm 0.00 in0.0 mm 0.01 in0.3 mm
01:50 PM 69.6°F20.9°C 40.0°F4.4°C 34% 5.2 mph S8.4 kmh S 7.6 mph12.2 kmh 30.02 in1016.6 mb 0.00 in0.0 mm 0.00 in0.0 mm 0.01 in0.3 mm
02:00 PM 69.6°F20.9°C 41.5°F5.3°C 36% 5.0 mph SSW8.0 kmh SSW 9.2 mph14.8 kmh 30.02 in1016.6 mb 0.00 in0.0 mm 0.00 in0.0 mm 0.01 in0.3 mm
02:10 PM 69.1°F20.6°C 41.7°F5.4°C 37% 5.4 mph W8.7 kmh W 9.2 mph14.8 kmh 30.02 in1016.6 mb 0.00 in0.0 mm 0.00 in0.0 mm 0.01 in0.3 mm
02:20 PM 68.5°F20.3°C 40.6°F4.8°C 36% 5.5 mph WSW8.9 kmh WSW 9.2 mph14.8 kmh 30.02 in1016.6 mb 0.00 in0.0 mm 0.00 in0.0 mm 0.01 in0.3 mm
02:30 PM 66.4°F19.1°C 39.3°F4.1°C 37% 7.2 mph S11.6 kmh S 9.2 mph14.8 kmh 30.01 in1016.3 mb 0.00 in0.0 mm 0.00 in0.0 mm 0.01 in0.3 mm
02:40 PM 66.4°F19.1°C 40.7°F4.8°C 39% 6.2 mph S10.0 kmh S 9.2 mph14.8 kmh 30.01 in1016.3 mb 0.00 in0.0 mm 0.00 in0.0 mm 0.01 in0.3 mm
02:50 PM 65.8°F18.8°C 40.9°F4.9°C 40% 6.6 mph SSW10.6 kmh SSW 8.3 mph13.4 kmh 30.00 in1015.9 mb 0.00 in0.0 mm 0.00 in0.0 mm 0.01 in0.3 mm
03:00 PM 68.0°F20.0°C 41.5°F5.3°C 38% 5.3 mph SSW8.5 kmh SSW 8.3 mph13.4 kmh 30.01 in1016.3 mb 0.00 in0.0 mm 0.00 in0.0 mm 0.01 in0.3 mm
03:10 PM 66.9°F19.4°C 39.8°F4.3°C 37% 6.1 mph S9.8 kmh S 9.2 mph14.8 kmh 30.01 in1016.3 mb 0.00 in0.0 mm 0.00 in0.0 mm 0.01 in0.3 mm
03:20 PM 67.8°F19.9°C 40.6°F4.8°C 37% 5.4 mph SW8.7 kmh SW 9.8 mph15.8 kmh 30.00 in1015.9 mb 0.00 in0.0 mm 0.00 in0.0 mm 0.01 in0.3 mm
03:30 PM 66.7°F19.3°C 38.2°F3.4°C 35% 6.7 mph SSW10.8 kmh SSW 9.8 mph15.8 kmh 30.00 in1015.9 mb 0.00 in0.0 mm 0.00 in0.0 mm 0.01 in0.3 mm
03:40 PM 67.3°F19.6°C 39.4°F4.1°C 36% 5.1 mph S8.2 kmh S 7.6 mph12.2 kmh 30.00 in1015.9 mb 0.00 in0.0 mm 0.00 in0.0 mm 0.01 in0.3 mm
03:50 PM 67.5°F19.7°C 39.6°F4.2°C 36% 5.7 mph SW9.2 kmh SW 7.6 mph12.2 kmh 30.00 in1015.9 mb 0.00 in0.0 mm 0.00 in0.0 mm 0.01 in0.3 mm
04:00 PM 66.6°F19.2°C 40.9°F4.9°C 39% 5.7 mph SW9.2 kmh SW 8.3 mph13.4 kmh 30.00 in1015.9 mb 0.00 in0.0 mm 0.00 in0.0 mm 0.01 in0.3 mm
04:10 PM 66.7°F19.3°C 41.7°F5.4°C 40% 4.1 mph W6.6 kmh W 5.4 mph8.7 kmh 29.99 in1015.6 mb 0.00 in0.0 mm 0.00 in0.0 mm 0.01 in0.3 mm
04:20 PM 68.9°F20.5°C 40.9°F4.9°C 36% 4.5 mph SW7.2 kmh SW 6.9 mph11.1 kmh 29.99 in1015.6 mb 0.00 in0.0 mm 0.00 in0.0 mm 0.01 in0.3 mm
04:30 PM 69.6°F20.9°C 39.3°F4.1°C 33% 4.8 mph SW7.7 kmh SW 7.6 mph12.2 kmh 29.99 in1015.6 mb 0.00 in0.0 mm 0.00 in0.0 mm 0.01 in0.3 mm
04:40 PM 67.8°F19.9°C 39.2°F4.0°C 35% 5.7 mph SSW9.2 kmh SSW 9.2 mph14.8 kmh 29.99 in1015.6 mb 0.00 in0.0 mm 0.00 in0.0 mm 0.01 in0.3 mm
04:50 PM 67.3°F19.6°C 38.7°F3.7°C 35% 5.4 mph SW8.7 kmh SW 6.9 mph11.1 kmh 29.98 in1015.2 mb 0.00 in0.0 mm 0.00 in0.0 mm 0.01 in0.3 mm
05:00 PM 67.1°F19.5°C 42.0°F5.6°C 40% 4.9 mph W7.9 kmh W 9.2 mph14.8 kmh 29.99 in1015.6 mb 0.00 in0.0 mm 0.00 in0.0 mm 0.01 in0.3 mm
05:10 PM 69.1°F20.6°C 39.6°F4.2°C 34% 4.5 mph SW7.2 kmh SW 6.9 mph11.1 kmh 29.98 in1015.2 mb 0.00 in0.0 mm 0.00 in0.0 mm 0.01 in0.3 mm
05:20 PM 68.2°F20.1°C 39.5°F4.2°C 35% 4.2 mph SSW6.8 kmh SSW 6.9 mph11.1 kmh 29.98 in1015.2 mb 0.00 in0.0 mm 0.00 in0.0 mm 0.01 in0.3 mm
05:30 PM 68.7°F20.4°C 38.5°F3.6°C 33% 4.4 mph SW7.1 kmh SW 6.9 mph11.1 kmh 29.97 in1014.9 mb 0.00 in0.0 mm 0.00 in0.0 mm 0.01 in0.3 mm
05:40 PM 69.3°F20.7°C 39.0°F3.9°C 33% 3.7 mph SW6.0 kmh SW 6.9 mph11.1 kmh 29.97 in1014.9 mb 0.00 in0.0 mm 0.00 in0.0 mm 0.01 in0.3 mm
05:50 PM 69.3°F20.7°C 38.2°F3.4°C 32% 3.6 mph SW5.8 kmh SW 4.5 mph7.2 kmh 29.97 in1014.9 mb 0.00 in0.0 mm 0.00 in0.0 mm 0.01 in0.3 mm
06:00 PM 68.0°F20.0°C 38.6°F3.7°C 34% 4.5 mph SW7.2 kmh SW 6.9 mph11.1 kmh 29.97 in1014.9 mb 0.00 in0.0 mm 0.00 in0.0 mm 0.01 in0.3 mm
06:10 PM 66.9°F19.4°C 37.7°F3.2°C 34% 4.7 mph SSW7.6 kmh SSW 6.9 mph11.1 kmh 29.96 in1014.6 mb 0.00 in0.0 mm 0.00 in0.0 mm 0.01 in0.3 mm
06:20 PM 66.0°F18.9°C 37.6°F3.1°C 35% 5.3 mph SSW8.5 kmh SSW 7.6 mph12.2 kmh 29.96 in1014.6 mb 0.00 in0.0 mm 0.00 in0.0 mm 0.01 in0.3 mm
06:30 PM 66.4°F19.1°C 38.6°F3.7°C 36% 3.1 mph WSW5.0 kmh WSW 4.5 mph7.2 kmh 29.97 in1014.9 mb 0.00 in0.0 mm 0.00 in0.0 mm 0.01 in0.3 mm
06:40 PM 65.3°F18.5°C 38.4°F3.6°C 37% 4.2 mph SSW6.8 kmh SSW 6.0 mph9.7 kmh 29.97 in1014.9 mb 0.00 in0.0 mm 0.00 in0.0 mm 0.01 in0.3 mm
06:50 PM 64.2°F17.9°C 38.8°F3.8°C 39% 3.8 mph SW6.1 kmh SW 6.9 mph11.1 kmh 29.96 in1014.6 mb 0.00 in0.0 mm 0.00 in0.0 mm 0.01 in0.3 mm
07:00 PM 63.1°F17.3°C 39.1°F3.9°C 41% 3.9 mph SSW6.3 kmh SSW 6.0 mph9.7 kmh 29.97 in1014.9 mb 0.00 in0.0 mm 0.00 in0.0 mm 0.01 in0.3 mm
07:10 PM 62.2°F16.8°C 39.5°F4.2°C 43% 2.6 mph SW4.2 kmh SW 4.5 mph7.2 kmh 29.96 in1014.6 mb 0.00 in0.0 mm 0.00 in0.0 mm 0.01 in0.3 mm
07:20 PM 60.4°F15.8°C 38.4°F3.6°C 44% 2.9 mph SSW4.7 kmh SSW 4.5 mph7.2 kmh 29.97 in1014.9 mb 0.00 in0.0 mm 0.00 in0.0 mm 0.01 in0.3 mm
07:30 PM 58.5°F14.7°C 37.8°F3.2°C 46% 2.3 mph SW3.7 kmh SW 3.8 mph6.1 kmh 29.96 in1014.6 mb 0.00 in0.0 mm 0.00 in0.0 mm 0.01 in0.3 mm
07:40 PM 57.6°F14.2°C 38.6°F3.7°C 49% 2.5 mph SSW4.0 kmh SSW 3.1 mph5.0 kmh 29.97 in1014.9 mb 0.00 in0.0 mm 0.00 in0.0 mm 0.01 in0.3 mm
07:50 PM 56.7°F13.7°C 38.2°F3.4°C 50% 2.1 mph SW3.4 kmh SW 3.1 mph5.0 kmh 29.97 in1014.9 mb 0.00 in0.0 mm 0.00 in0.0 mm 0.01 in0.3 mm
08:00 PM 56.1°F13.4°C 37.7°F3.2°C 50% 2.1 mph SW3.4 kmh SW 3.1 mph5.0 kmh 29.97 in1014.9 mb 0.00 in0.0 mm 0.00 in0.0 mm 0.01 in0.3 mm
08:10 PM 55.0°F12.8°C 37.3°F2.9°C 51% 1.0 mph SW1.6 kmh SW 2.2 mph3.5 kmh 29.97 in1014.9 mb 0.00 in0.0 mm 0.00 in0.0 mm 0.01 in0.3 mm
08:20 PM 54.7°F12.6°C 37.9°F3.3°C 53% 1.3 mph SSW2.1 kmh SSW 2.2 mph3.5 kmh 29.97 in1014.9 mb 0.00 in0.0 mm 0.00 in0.0 mm 0.01 in0.3 mm
08:30 PM 53.6°F12.0°C 38.7°F3.7°C 57% 1.0 mph SW1.6 kmh SW 2.2 mph3.5 kmh 29.97 in1014.9 mb 0.00 in0.0 mm 0.00 in0.0 mm 0.01 in0.3 mm
08:40 PM 53.1°F11.7°C 39.6°F4.2°C 60% 1.0 mph S1.6 kmh S 1.6 mph2.6 kmh 29.96 in1014.6 mb 0.00 in0.0 mm 0.00 in0.0 mm 0.01 in0.3 mm
08:50 PM 52.2°F11.2°C 39.1°F3.9°C 61% 1.2 mph SSW1.9 kmh SSW 2.2 mph3.5 kmh 29.96 in1014.6 mb 0.00 in0.0 mm 0.00 in0.0 mm 0.01 in0.3 mm
09:00 PM 51.8°F11.0°C 39.2°F4.0°C 62% 1.3 mph WSW2.1 kmh WSW 2.2 mph3.5 kmh 29.96 in1014.6 mb 0.00 in0.0 mm 0.00 in0.0 mm 0.01 in0.3 mm
09:10 PM 51.3°F10.7°C 39.1°F3.9°C 63% 1.8 mph WSW2.9 kmh WSW 2.2 mph3.5 kmh 29.96 in1014.6 mb 0.00 in0.0 mm 0.00 in0.0 mm 0.01 in0.3 mm
09:20 PM 51.1°F10.6°C 38.9°F3.8°C 63% 1.2 mph SW1.9 kmh SW 2.2 mph3.5 kmh 29.96 in1014.6 mb 0.00 in0.0 mm 0.00 in0.0 mm 0.01 in0.3 mm
09:30 PM 50.7°F10.4°C 38.6°F3.7°C 63% 1.0 mph SW1.6 kmh SW 1.6 mph2.6 kmh 29.96 in1014.6 mb 0.00 in0.0 mm 0.00 in0.0 mm 0.01 in0.3 mm
09:40 PM 50.9°F10.5°C 39.2°F4.0°C 64% 1.5 mph S2.4 kmh S 2.2 mph3.5 kmh 29.96 in1014.6 mb 0.00 in0.0 mm 0.00 in0.0 mm 0.01 in0.3 mm
09:50 PM 50.5°F10.3°C 38.8°F3.8°C 64% 1.9 mph S3.1 kmh S 2.2 mph3.5 kmh 29.96 in1014.6 mb 0.00 in0.0 mm 0.00 in0.0 mm 0.01 in0.3 mm
10:00 PM 50.4°F10.2°C 38.7°F3.7°C 64% 1.8 mph S2.9 kmh S 3.8 mph6.1 kmh 29.96 in1014.6 mb 0.00 in0.0 mm 0.00 in0.0 mm 0.01 in0.3 mm
10:10 PM 49.8°F9.9°C 38.5°F3.6°C 65% 1.9 mph S3.1 kmh S 3.1 mph5.0 kmh 29.96 in1014.6 mb 0.00 in0.0 mm 0.00 in0.0 mm 0.01 in0.3 mm
10:20 PM 49.8°F9.9°C 38.5°F3.6°C 65% 2.4 mph S3.9 kmh S 3.1 mph5.0 kmh 29.94 in1013.9 mb 0.00 in0.0 mm 0.00 in0.0 mm 0.01 in0.3 mm
10:30 PM 49.5°F9.7°C 37.8°F3.2°C 64% 1.9 mph SW3.1 kmh SW 3.1 mph5.0 kmh 29.95 in1014.2 mb 0.00 in0.0 mm 0.00 in0.0 mm 0.01 in0.3 mm
10:40 PM 48.9°F9.4°C 38.1°F3.4°C 66% 1.7 mph SW2.7 kmh SW 2.2 mph3.5 kmh 29.95 in1014.2 mb 0.00 in0.0 mm 0.00 in0.0 mm 0.01 in0.3 mm
10:50 PM 48.6°F9.2°C 37.7°F3.2°C 66% 0.9 mph SW1.4 kmh SW 1.6 mph2.6 kmh 29.95 in1014.2 mb 0.00 in0.0 mm 0.00 in0.0 mm 0.01 in0.3 mm
11:00 PM 48.4°F9.1°C 37.2°F2.9°C 65% 0.1 mph W0.2 kmh W 0.7 mph1.1 kmh 29.94 in1013.9 mb 0.00 in0.0 mm 0.00 in0.0 mm 0.01 in0.3 mm
11:10 PM 48.0°F8.9°C 36.8°F2.7°C 65% 1.6 mph WSW2.6 kmh WSW 1.6 mph2.6 kmh 29.94 in1013.9 mb 0.00 in0.0 mm 0.00 in0.0 mm 0.01 in0.3 mm
11:20 PM 47.7°F8.7°C 36.5°F2.5°C 65% 1.1 mph SW1.8 kmh SW 1.6 mph2.6 kmh 29.94 in1013.9 mb 0.00 in0.0 mm 0.00 in0.0 mm 0.01 in0.3 mm
11:30 PM 47.5°F8.6°C 36.3°F2.4°C 65% 0.8 mph SW1.3 kmh SW 1.6 mph2.6 kmh 29.93 in1013.5 mb 0.00 in0.0 mm 0.00 in0.0 mm 0.01 in0.3 mm
11:40 PM 47.5°F8.6°C 36.3°F2.4°C 65% 1.4 mph SW2.3 kmh SW 2.2 mph3.5 kmh 29.93 in1013.5 mb 0.00 in0.0 mm 0.00 in0.0 mm 0.01 in0.3 mm
11:50 PM 47.5°F8.6°C 35.9°F2.2°C 64% 1.4 mph SW2.3 kmh SW 3.1 mph5.0 kmh 29.94 in1013.9 mb 0.00 in0.0 mm 0.00 in0.0 mm 0.01 in0.3 mm